createdAt,value
2019-04-27T00:00:24.418Z,11.09
2019-04-27T00:01:24.400Z,11.14
2019-04-27T00:02:26.563Z,11.04
2019-04-27T00:03:24.376Z,11.04
2019-04-27T00:04:25.361Z,11.10
2019-04-27T00:05:30.671Z,11.09
2019-04-27T00:06:25.390Z,11.09
2019-04-27T00:07:29.355Z,10.96
2019-04-27T00:08:24.331Z,11.03
2019-04-27T00:09:24.301Z,11.02
2019-04-27T00:10:25.246Z,10.97
2019-04-27T00:11:24.282Z,11.00
2019-04-27T00:12:26.478Z,11.04
2019-04-27T00:13:24.265Z,11.11
2019-04-27T00:14:24.335Z,11.07
2019-04-27T00:15:31.126Z,11.07
2019-04-27T00:16:25.284Z,11.07
2019-04-27T00:17:42.491Z,11.03
2019-04-27T00:18:30.251Z,11.03
2019-04-27T00:19:27.409Z,11.00
2019-04-27T00:20:25.175Z,11.04
2019-04-27T00:21:24.165Z,11.03
2019-04-27T00:22:25.565Z,11.02
2019-04-27T00:23:24.153Z,11.02
2019-04-27T00:24:24.128Z,11.10
2019-04-27T00:25:26.907Z,11.00
2019-04-27T00:26:24.122Z,11.00
2019-04-27T00:27:24.099Z,10.97
2019-04-27T00:28:24.098Z,10.91
2019-04-27T00:29:29.107Z,10.96
2019-04-27T00:30:24.063Z,10.96
2019-04-27T00:31:24.057Z,10.99
2019-04-27T00:32:24.044Z,10.92
2019-04-27T00:33:24.053Z,10.91
2019-04-27T00:34:24.075Z,10.91
2019-04-27T00:35:24.008Z,10.92
2019-04-27T00:36:24.028Z,10.89
2019-04-27T00:37:23.989Z,10.81
2019-04-27T00:38:23.984Z,10.76
2019-04-27T00:39:23.965Z,10.79
2019-04-27T00:40:29.014Z,10.76
2019-04-27T00:41:24.233Z,10.76
2019-04-27T00:42:23.926Z,10.78
2019-04-27T00:43:23.952Z,10.79
2019-04-27T00:44:23.904Z,10.78
2019-04-27T00:45:23.896Z,10.70
2019-04-27T00:46:23.882Z,10.73
2019-04-27T00:47:24.046Z,10.76
2019-04-27T00:48:23.871Z,10.78
2019-04-27T00:49:23.975Z,10.68
2019-04-27T00:50:23.859Z,10.71
2019-04-27T00:51:28.897Z,10.73
2019-04-27T00:52:24.106Z,10.74
2019-04-27T00:53:23.826Z,10.81
2019-04-27T00:54:23.903Z,10.81
2019-04-27T00:55:23.806Z,10.81
2019-04-27T00:56:25.276Z,10.76
2019-04-27T00:57:24.547Z,10.71
2019-04-27T00:58:23.770Z,10.73
2019-04-27T00:59:23.908Z,10.73
2019-04-27T01:00:23.738Z,10.70
2019-04-27T01:01:23.714Z,10.68
2019-04-27T01:02:28.723Z,10.78
2019-04-27T01:03:23.707Z,10.67
2019-04-27T01:04:23.787Z,10.68
2019-04-27T01:05:23.674Z,10.67
2019-04-27T01:06:23.665Z,10.78
2019-04-27T01:07:25.016Z,10.73
2019-04-27T01:08:23.658Z,10.67
2019-04-27T01:09:23.767Z,10.73
2019-04-27T01:10:23.613Z,10.64
2019-04-27T01:11:24.961Z,10.74
2019-04-27T01:12:23.763Z,10.73
2019-04-27T01:13:29.445Z,10.70
2019-04-27T01:14:23.570Z,10.68
2019-04-27T01:15:23.847Z,10.74
2019-04-27T01:16:24.249Z,10.76
2019-04-27T01:17:23.561Z,10.79
2019-04-27T01:18:23.547Z,10.68
2019-04-27T01:19:23.515Z,10.74
2019-04-27T01:20:23.560Z,10.78
2019-04-27T01:21:23.493Z,10.84
2019-04-27T01:22:23.488Z,10.76
2019-04-27T01:23:23.500Z,10.81
2019-04-27T01:24:28.723Z,10.73
2019-04-27T01:25:23.462Z,10.71
2019-04-27T01:26:23.438Z,10.70
2019-04-27T01:27:23.432Z,10.74
2019-04-27T01:28:23.424Z,10.79
2019-04-27T01:29:23.460Z,10.73
2019-04-27T01:30:23.407Z,10.68
2019-04-27T01:31:23.394Z,10.67
2019-04-27T01:32:23.371Z,10.76
2019-04-27T01:33:23.361Z,10.71
2019-04-27T01:34:23.393Z,10.64
2019-04-27T01:35:28.835Z,10.64
2019-04-27T01:36:23.326Z,10.64
2019-04-27T01:37:23.325Z,10.70
2019-04-27T01:38:23.316Z,10.67
2019-04-27T01:39:23.301Z,10.67
2019-04-27T01:40:23.295Z,10.63
2019-04-27T01:41:23.269Z,10.64
2019-04-27T01:42:23.281Z,10.68
2019-04-27T01:43:23.254Z,10.64
2019-04-27T01:44:23.259Z,10.68
2019-04-27T01:45:23.232Z,10.64
2019-04-27T01:46:29.546Z,10.63
2019-04-27T01:47:23.208Z,10.66
2019-04-27T01:48:25.782Z,10.63
2019-04-27T01:49:23.203Z,10.52
2019-04-27T01:50:23.177Z,10.59
2019-04-27T01:51:23.173Z,10.63
2019-04-27T01:52:23.152Z,10.61
2019-04-27T01:53:23.149Z,10.55
2019-04-27T01:54:23.136Z,10.59
2019-04-27T01:55:23.123Z,10.48
2019-04-27T01:56:23.155Z,10.60
2019-04-27T01:57:29.476Z,10.55
2019-04-27T01:58:23.105Z,10.55
2019-04-27T01:59:23.117Z,10.53
2019-04-27T02:00:23.086Z,10.60
2019-04-27T02:01:23.056Z,10.51
2019-04-27T02:02:23.039Z,10.52
2019-04-27T02:03:23.035Z,10.63
2019-04-27T02:04:23.024Z,10.55
2019-04-27T02:05:23.003Z,10.52
2019-04-27T02:06:23.009Z,10.60
2019-04-27T02:07:22.978Z,10.61
2019-04-27T02:08:28.653Z,10.60
2019-04-27T02:09:22.978Z,10.59
2019-04-27T02:10:22.950Z,10.59
2019-04-27T02:11:22.949Z,10.55
2019-04-27T02:12:22.938Z,10.55
2019-04-27T02:13:22.912Z,10.53
2019-04-27T02:14:22.902Z,10.53
2019-04-27T02:15:22.913Z,10.61
2019-04-27T02:16:22.938Z,10.59
2019-04-27T02:17:22.898Z,10.60
2019-04-27T02:18:34.752Z,10.55
2019-04-27T02:19:29.238Z,10.56
2019-04-27T02:20:22.842Z,10.51
2019-04-27T02:21:22.826Z,10.48
2019-04-27T02:22:22.829Z,10.52
2019-04-27T02:23:22.803Z,10.53
2019-04-27T02:24:22.788Z,10.60
2019-04-27T02:25:22.792Z,10.61
2019-04-27T02:26:22.781Z,10.66
2019-04-27T02:27:22.763Z,10.66
2019-04-27T02:28:22.752Z,10.66
2019-04-27T02:29:22.737Z,10.68
2019-04-27T02:30:30.469Z,10.66
2019-04-27T02:31:22.711Z,10.68
2019-04-27T02:32:22.699Z,10.60
2019-04-27T02:33:22.706Z,10.48
2019-04-27T02:34:22.727Z,10.52
2019-04-27T02:35:22.716Z,10.53
2019-04-27T02:36:22.655Z,10.59
2019-04-27T02:37:22.655Z,10.59
2019-04-27T02:38:22.653Z,10.59
2019-04-27T02:39:22.633Z,10.53
2019-04-27T02:40:22.626Z,10.53
2019-04-27T02:41:29.729Z,10.51
2019-04-27T02:42:22.593Z,10.47
2019-04-27T02:43:22.573Z,10.51
2019-04-27T02:44:22.571Z,10.53
2019-04-27T02:45:22.583Z,10.55
2019-04-27T02:46:22.565Z,10.63
2019-04-27T02:47:22.529Z,10.70
2019-04-27T02:48:22.528Z,10.74
2019-04-27T02:49:22.524Z,10.68
2019-04-27T02:50:22.517Z,10.52
2019-04-27T02:51:22.530Z,10.63
2019-04-27T02:52:29.818Z,10.51
2019-04-27T02:53:22.462Z,10.59
2019-04-27T02:54:22.457Z,10.48
2019-04-27T02:55:22.749Z,10.55
2019-04-27T02:56:22.453Z,10.55
2019-04-27T02:57:22.419Z,10.52
2019-04-27T02:58:22.411Z,10.41
2019-04-27T02:59:22.411Z,10.44
2019-04-27T03:00:22.414Z,10.47
2019-04-27T03:01:22.397Z,10.45
2019-04-27T03:02:22.380Z,10.47
2019-04-27T03:03:27.414Z,10.41
2019-04-27T03:04:22.351Z,10.42
2019-04-27T03:05:22.350Z,10.51
2019-04-27T03:06:22.354Z,10.41
2019-04-27T03:07:22.307Z,10.41
2019-04-27T03:08:22.331Z,10.42
2019-04-27T03:09:22.282Z,10.47
2019-04-27T03:10:22.274Z,10.38
2019-04-27T03:11:23.414Z,10.48
2019-04-27T03:12:22.284Z,10.48
2019-04-27T03:13:22.271Z,10.40
2019-04-27T03:14:32.447Z,10.42
2019-04-27T03:15:23.655Z,10.44
2019-04-27T03:16:22.214Z,10.48
2019-04-27T03:17:22.829Z,10.48
2019-04-27T03:18:22.186Z,10.41
2019-04-27T03:19:22.261Z,10.42
2019-04-27T03:20:22.166Z,10.42
2019-04-27T03:21:22.191Z,10.40
2019-04-27T03:22:22.134Z,10.41
2019-04-27T03:23:22.143Z,10.36
2019-04-27T03:24:23.006Z,10.41
2019-04-27T03:25:31.974Z,10.36
2019-04-27T03:26:23.129Z,10.42
2019-04-27T03:27:22.082Z,10.41
2019-04-27T03:28:22.080Z,10.34
2019-04-27T03:29:23.028Z,10.40
2019-04-27T03:30:23.428Z,10.34
2019-04-27T03:31:22.071Z,10.34
2019-04-27T03:32:23.293Z,10.38
2019-04-27T03:33:22.845Z,10.33
2019-04-27T03:34:22.727Z,10.40
2019-04-27T03:35:23.225Z,10.30
2019-04-27T03:36:31.272Z,10.36
2019-04-27T03:37:21.992Z,10.34
2019-04-27T03:38:21.966Z,10.29
2019-04-27T03:39:21.944Z,10.26
2019-04-27T03:40:21.947Z,10.25
2019-04-27T03:41:22.001Z,10.29
2019-04-27T03:42:21.938Z,10.30
2019-04-27T03:43:21.905Z,10.27
2019-04-27T03:44:21.912Z,10.25
2019-04-27T03:45:21.880Z,10.30
2019-04-27T03:46:21.904Z,10.25
2019-04-27T03:47:26.886Z,10.22
2019-04-27T03:48:21.850Z,10.30
2019-04-27T03:49:35.079Z,10.25
2019-04-27T03:50:22.823Z,10.23
2019-04-27T03:51:21.830Z,10.25
2019-04-27T03:52:21.815Z,10.26
2019-04-27T03:53:23.245Z,10.29
2019-04-27T03:54:22.270Z,10.20
2019-04-27T03:55:21.767Z,10.23
2019-04-27T03:56:21.763Z,10.23
2019-04-27T03:57:21.773Z,10.22
2019-04-27T03:58:26.765Z,10.07
2019-04-27T03:59:21.720Z,10.08
2019-04-27T04:00:21.727Z,10.02
2019-04-27T04:01:21.709Z,10.07
2019-04-27T04:02:21.692Z,10.01
2019-04-27T04:03:21.681Z,10.08
2019-04-27T04:04:21.674Z,9.96
2019-04-27T04:05:21.663Z,9.90
2019-04-27T04:06:21.671Z,9.93
2019-04-27T04:07:21.641Z,10.07
2019-04-27T04:08:21.650Z,10.01
2019-04-27T04:09:26.649Z,9.96
2019-04-27T04:10:21.615Z,9.91
2019-04-27T04:11:21.582Z,9.93
2019-04-27T04:12:21.590Z,9.83
2019-04-27T04:13:22.712Z,9.81
2019-04-27T04:14:21.574Z,9.75
2019-04-27T04:15:21.541Z,9.71
2019-04-27T04:16:21.537Z,9.69
2019-04-27T04:17:21.540Z,9.68
2019-04-27T04:18:21.518Z,9.76
2019-04-27T04:19:21.496Z,9.72
2019-04-27T04:20:26.509Z,9.68
2019-04-27T04:21:21.489Z,9.68
2019-04-27T04:22:21.477Z,9.79
2019-04-27T04:23:21.453Z,9.75
2019-04-27T04:24:21.454Z,9.71
2019-04-27T04:25:21.490Z,9.72
2019-04-27T04:26:21.433Z,9.66
2019-04-27T04:27:21.423Z,9.61
2019-04-27T04:28:21.408Z,9.71
2019-04-27T04:29:21.380Z,9.66
2019-04-27T04:30:21.376Z,9.69
2019-04-27T04:31:26.474Z,9.66
2019-04-27T04:32:21.371Z,9.66
2019-04-27T04:33:21.341Z,9.71
2019-04-27T04:34:21.348Z,9.68
2019-04-27T04:35:21.771Z,9.64
2019-04-27T04:36:21.359Z,9.61
2019-04-27T04:37:21.308Z,9.68
2019-04-27T04:38:21.300Z,9.56
2019-04-27T04:39:21.276Z,9.74
2019-04-27T04:40:23.214Z,9.64
2019-04-27T04:41:21.288Z,9.66
2019-04-27T04:42:26.283Z,9.66
2019-04-27T04:43:21.222Z,9.72
2019-04-27T04:44:21.216Z,9.65
2019-04-27T04:45:21.207Z,9.65
2019-04-27T04:46:22.957Z,9.69
2019-04-27T04:47:21.186Z,9.68
2019-04-27T04:48:21.229Z,9.71
2019-04-27T04:49:21.151Z,9.72
2019-04-27T04:50:22.790Z,9.69
2019-04-27T04:51:21.144Z,9.66
2019-04-27T04:52:21.161Z,9.64
2019-04-27T04:53:26.163Z,9.60
2019-04-27T04:54:24.372Z,9.68
2019-04-27T04:55:21.095Z,9.69
2019-04-27T04:56:21.085Z,9.68
2019-04-27T04:57:21.973Z,9.66
2019-04-27T04:58:21.261Z,9.74
2019-04-27T04:59:21.051Z,9.79
2019-04-27T05:00:21.031Z,9.84
2019-04-27T05:01:21.167Z,9.79
2019-04-27T05:02:21.026Z,9.76
2019-04-27T05:03:21.910Z,9.79
2019-04-27T05:04:26.015Z,9.65
2019-04-27T05:05:20.974Z,9.68
2019-04-27T05:06:20.963Z,9.75
2019-04-27T05:07:20.972Z,9.79
2019-04-27T05:08:20.978Z,9.79
2019-04-27T05:09:20.936Z,9.83
2019-04-27T05:10:20.915Z,9.83
2019-04-27T05:11:20.903Z,9.89
2019-04-27T05:12:20.891Z,9.87
2019-04-27T05:13:20.917Z,9.93
2019-04-27T05:14:20.870Z,9.94
2019-04-27T05:15:25.884Z,9.96
2019-04-27T05:16:20.853Z,9.93
2019-04-27T05:17:20.839Z,10.02
2019-04-27T05:18:20.839Z,10.05
2019-04-27T05:19:20.822Z,10.04
2019-04-27T05:20:24.364Z,10.04
2019-04-27T05:21:21.819Z,10.11
2019-04-27T05:22:20.801Z,10.09
2019-04-27T05:23:20.784Z,10.11
2019-04-27T05:24:20.775Z,10.11
2019-04-27T05:25:20.747Z,10.14
2019-04-27T05:26:25.777Z,10.05
2019-04-27T05:27:20.725Z,10.15
2019-04-27T05:28:20.725Z,10.25
2019-04-27T05:29:20.717Z,10.27
2019-04-27T05:30:20.697Z,10.23
2019-04-27T05:31:20.688Z,10.33
2019-04-27T05:32:20.814Z,10.27
2019-04-27T05:33:20.690Z,10.40
2019-04-27T05:34:20.662Z,10.59
2019-04-27T05:35:20.629Z,10.64
2019-04-27T05:36:20.628Z,10.78
2019-04-27T05:37:28.232Z,10.84
2019-04-27T05:38:21.614Z,10.74
2019-04-27T05:39:24.866Z,10.70
2019-04-27T05:40:21.615Z,10.78
2019-04-27T05:41:20.583Z,10.73
2019-04-27T05:42:20.565Z,10.78
2019-04-27T05:43:20.568Z,10.76
2019-04-27T05:44:20.804Z,10.81
2019-04-27T05:45:22.816Z,10.99
2019-04-27T05:46:20.509Z,11.03
2019-04-27T05:47:20.500Z,11.14
2019-04-27T05:48:27.700Z,11.22
2019-04-27T05:49:20.682Z,11.22
2019-04-27T05:50:21.992Z,11.28
2019-04-27T05:51:20.449Z,11.28
2019-04-27T05:52:20.456Z,11.36
2019-04-27T05:53:20.470Z,11.47
2019-04-27T05:54:20.473Z,11.51
2019-04-27T05:55:20.407Z,11.61
2019-04-27T05:56:21.606Z,11.73
2019-04-27T05:57:20.489Z,11.86
2019-04-27T05:58:20.373Z,11.98
2019-04-27T05:59:25.413Z,12.31
2019-04-27T06:00:20.349Z,12.34
2019-04-27T06:01:20.376Z,12.37
2019-04-27T06:02:23.668Z,12.34
2019-04-27T06:03:21.002Z,12.37
2019-04-27T06:04:20.332Z,12.53
2019-04-27T06:05:22.780Z,12.54
2019-04-27T06:06:20.286Z,12.72
2019-04-27T06:07:20.269Z,12.90
2019-04-27T06:08:21.119Z,13.08
2019-04-27T06:09:20.269Z,13.11
2019-04-27T06:10:25.271Z,13.05
2019-04-27T06:11:20.242Z,12.92
2019-04-27T06:12:20.216Z,12.93
2019-04-27T06:13:20.198Z,12.96
2019-04-27T06:14:20.213Z,12.96
2019-04-27T06:15:20.218Z,12.86
2019-04-27T06:16:20.168Z,12.85
2019-04-27T06:17:20.173Z,12.93
2019-04-27T06:18:20.764Z,12.93
2019-04-27T06:19:20.143Z,12.93
2019-04-27T06:20:20.135Z,13.05
2019-04-27T06:21:25.135Z,13.08
2019-04-27T06:22:20.116Z,13.05
2019-04-27T06:23:21.017Z,13.17
2019-04-27T06:24:20.091Z,13.11
2019-04-27T06:25:21.539Z,13.17
2019-04-27T06:26:20.293Z,13.17
2019-04-27T06:27:21.059Z,13.19
2019-04-27T06:28:20.040Z,13.22
2019-04-27T06:29:20.034Z,13.11
2019-04-27T06:30:20.131Z,13.08
2019-04-27T06:31:20.000Z,13.11
2019-04-27T06:32:25.005Z,13.22
2019-04-27T06:33:30.075Z,13.36
2019-04-27T06:34:21.018Z,13.42
2019-04-27T06:35:19.948Z,13.46
2019-04-27T06:36:20.030Z,13.57
2019-04-27T06:37:21.650Z,13.70
2019-04-27T06:38:19.919Z,13.67
2019-04-27T06:39:20.543Z,13.66
2019-04-27T06:40:19.892Z,13.57
2019-04-27T06:41:19.889Z,13.57
2019-04-27T06:42:20.770Z,13.55
2019-04-27T06:43:24.881Z,13.44
2019-04-27T06:44:19.861Z,13.42
2019-04-27T06:45:19.857Z,13.41
2019-04-27T06:46:20.015Z,13.30
2019-04-27T06:47:19.811Z,13.29
2019-04-27T06:48:19.805Z,13.33
2019-04-27T06:49:19.789Z,13.25
2019-04-27T06:50:19.792Z,13.07
2019-04-27T06:51:19.775Z,13.11
2019-04-27T06:52:19.756Z,13.03
2019-04-27T06:53:19.746Z,13.11
2019-04-27T06:54:24.755Z,13.01
2019-04-27T06:55:19.731Z,13.05
2019-04-27T06:56:19.710Z,13.12
2019-04-27T06:57:19.697Z,13.11
2019-04-27T06:58:20.198Z,13.08
2019-04-27T06:59:19.676Z,13.11
2019-04-27T07:00:19.685Z,13.05
2019-04-27T07:01:19.654Z,13.11
2019-04-27T07:02:19.643Z,13.08
2019-04-27T07:03:19.638Z,13.11
2019-04-27T07:04:19.737Z,13.03
2019-04-27T07:05:24.648Z,12.87
2019-04-27T07:06:19.595Z,12.87
2019-04-27T07:07:19.624Z,12.85
2019-04-27T07:08:19.579Z,12.75
2019-04-27T07:09:19.675Z,12.70
2019-04-27T07:10:19.563Z,12.60
2019-04-27T07:11:19.798Z,12.59
2019-04-27T07:12:19.531Z,12.54
2019-04-27T07:13:19.680Z,12.62
2019-04-27T07:14:19.851Z,12.57
2019-04-27T07:15:20.475Z,12.74
2019-04-27T07:16:24.505Z,12.67
2019-04-27T07:17:19.477Z,12.70
2019-04-27T07:18:19.461Z,12.71
2019-04-27T07:19:19.451Z,12.71
2019-04-27T07:20:19.450Z,12.70
2019-04-27T07:21:24.605Z,12.68
2019-04-27T07:22:20.413Z,12.70
2019-04-27T07:23:20.986Z,12.67
2019-04-27T07:24:19.735Z,12.70
2019-04-27T07:25:19.392Z,12.56
2019-04-27T07:26:21.247Z,12.62
2019-04-27T07:27:24.380Z,12.54
2019-04-27T07:28:19.347Z,12.56
2019-04-27T07:29:19.709Z,12.59
2019-04-27T07:30:19.340Z,12.71
2019-04-27T07:31:19.390Z,12.70
2019-04-27T07:32:19.425Z,12.71
2019-04-27T07:33:19.297Z,12.85
2019-04-27T07:34:19.279Z,12.79
2019-04-27T07:35:19.757Z,12.70
2019-04-27T07:36:19.267Z,12.70
2019-04-27T07:37:19.627Z,12.57
2019-04-27T07:38:24.262Z,12.62
2019-04-27T07:39:19.499Z,12.64
2019-04-27T07:40:19.231Z,12.59
2019-04-27T07:41:19.524Z,12.64
2019-04-27T07:42:20.807Z,12.57
2019-04-27T07:43:21.194Z,12.57
2019-04-27T07:44:19.429Z,12.60
2019-04-27T07:45:19.613Z,12.59
2019-04-27T07:46:19.143Z,12.59
2019-04-27T07:47:19.554Z,12.65
2019-04-27T07:48:19.127Z,12.56
2019-04-27T07:49:24.138Z,12.64
2019-04-27T07:50:19.487Z,12.56
2019-04-27T07:51:31.181Z,12.64
2019-04-27T07:52:20.499Z,12.62
2019-04-27T07:53:19.428Z,12.60
2019-04-27T07:54:19.067Z,12.64
2019-04-27T07:55:19.053Z,12.52
2019-04-27T07:56:19.134Z,12.49
2019-04-27T07:57:19.766Z,12.46
2019-04-27T07:58:20.544Z,12.59
2019-04-27T07:59:19.011Z,12.45
2019-04-27T08:00:24.019Z,12.50
2019-04-27T08:01:19.343Z,12.50
2019-04-27T08:02:19.164Z,12.50
2019-04-27T08:03:19.593Z,12.57
2019-04-27T08:04:18.941Z,12.59
2019-04-27T08:05:19.262Z,12.50
2019-04-27T08:06:19.063Z,12.54
2019-04-27T08:07:19.706Z,12.49
2019-04-27T08:08:19.122Z,12.49
2019-04-27T08:09:19.142Z,12.46
2019-04-27T08:10:19.481Z,12.45
2019-04-27T08:11:23.883Z,12.47
2019-04-27T08:12:20.681Z,12.46
2019-04-27T08:13:19.518Z,12.39
2019-04-27T08:14:18.826Z,12.49
2019-04-27T08:15:19.026Z,12.49
2019-04-27T08:16:20.762Z,12.45
2019-04-27T08:17:19.310Z,12.52
2019-04-27T08:18:19.067Z,12.49
2019-04-27T08:19:19.637Z,12.39
2019-04-27T08:20:19.240Z,12.42
2019-04-27T08:21:18.960Z,12.38
2019-04-27T08:22:23.757Z,12.39
2019-04-27T08:23:19.575Z,12.42
2019-04-27T08:24:19.435Z,12.31
2019-04-27T08:25:19.027Z,12.35
2019-04-27T08:26:18.799Z,12.35
2019-04-27T08:27:19.426Z,12.29
2019-04-27T08:28:18.852Z,12.21
2019-04-27T08:29:18.657Z,12.16
2019-04-27T08:30:19.482Z,12.23
2019-04-27T08:31:18.779Z,12.23
2019-04-27T08:32:19.577Z,12.21
2019-04-27T08:33:23.639Z,12.16
2019-04-27T08:34:18.600Z,12.07
2019-04-27T08:35:19.488Z,12.09
2019-04-27T08:36:19.061Z,12.02
2019-04-27T08:37:18.836Z,12.01
2019-04-27T08:38:20.391Z,12.04
2019-04-27T08:39:18.712Z,11.98
2019-04-27T08:40:19.251Z,11.95
2019-04-27T08:41:19.671Z,12.01
2019-04-27T08:42:19.405Z,11.83
2019-04-27T08:43:19.093Z,11.94
2019-04-27T08:44:23.506Z,11.78
2019-04-27T08:45:19.300Z,11.82
2019-04-27T08:46:18.739Z,11.85
2019-04-27T08:47:19.459Z,11.80
2019-04-27T08:48:33.443Z,11.83
2019-04-27T08:49:19.431Z,11.80
2019-04-27T08:50:19.051Z,11.83
2019-04-27T08:51:19.582Z,11.83
2019-04-27T08:52:19.355Z,11.88
2019-04-27T08:53:18.683Z,11.96
2019-04-27T08:54:19.264Z,11.94
2019-04-27T08:55:23.382Z,11.94
2019-04-27T08:56:19.379Z,11.91
2019-04-27T08:57:18.827Z,11.79
2019-04-27T08:58:21.088Z,11.82
2019-04-27T08:59:19.447Z,11.88
2019-04-27T09:00:19.291Z,11.86
2019-04-27T09:01:20.696Z,11.79
2019-04-27T09:02:19.624Z,11.79
2019-04-27T09:03:19.371Z,11.79
2019-04-27T09:04:20.056Z,11.82
2019-04-27T09:05:19.264Z,11.78
2019-04-27T09:06:23.632Z,11.78
2019-04-27T09:07:19.670Z,11.76
2019-04-27T09:08:19.004Z,11.78
2019-04-27T09:09:19.218Z,11.78
2019-04-27T09:10:18.786Z,11.83
2019-04-27T09:11:18.678Z,11.86
2019-04-27T09:12:19.637Z,11.95
2019-04-27T09:13:19.490Z,12.01
2019-04-27T09:14:19.304Z,12.02
2019-04-27T09:15:19.262Z,12.07
2019-04-27T09:16:18.701Z,12.04
2019-04-27T09:17:23.130Z,12.01
2019-04-27T09:18:19.178Z,12.12
2019-04-27T09:19:18.830Z,12.14
2019-04-27T09:20:18.648Z,12.24
2019-04-27T09:21:19.157Z,12.21
2019-04-27T09:22:19.311Z,12.24
2019-04-27T09:23:18.808Z,12.29
2019-04-27T09:24:18.820Z,12.29
2019-04-27T09:25:19.305Z,12.38
2019-04-27T09:26:18.643Z,12.54
2019-04-27T09:27:19.876Z,12.54
2019-04-27T09:28:23.007Z,12.57
2019-04-27T09:29:19.794Z,12.78
2019-04-27T09:30:19.109Z,12.70
2019-04-27T09:31:19.630Z,12.83
2019-04-27T09:32:19.147Z,12.87
2019-04-27T09:33:17.927Z,12.89
2019-04-27T09:34:18.913Z,13.00
2019-04-27T09:35:17.919Z,13.08
2019-04-27T09:36:17.904Z,13.10
2019-04-27T09:37:17.886Z,13.08
2019-04-27T09:38:18.554Z,13.08
2019-04-27T09:39:22.885Z,13.20
2019-04-27T09:40:17.849Z,13.15
2019-04-27T09:41:17.855Z,13.26
2019-04-27T09:42:17.833Z,13.28
2019-04-27T09:43:17.826Z,13.33
2019-04-27T09:44:17.803Z,13.28
2019-04-27T09:45:17.799Z,13.29
2019-04-27T09:46:17.804Z,13.30
2019-04-27T09:47:17.771Z,13.38
2019-04-27T09:48:17.771Z,13.38
2019-04-27T09:49:17.747Z,13.45
2019-04-27T09:50:22.785Z,13.41
2019-04-27T09:51:17.726Z,13.33
2019-04-27T09:52:24.386Z,13.22
2019-04-27T09:53:18.697Z,13.23
2019-04-27T09:54:17.689Z,13.11
2019-04-27T09:55:17.685Z,13.12
2019-04-27T09:56:17.666Z,13.10
2019-04-27T09:57:17.667Z,13.15
2019-04-27T09:58:18.599Z,13.04
2019-04-27T09:59:17.644Z,13.10
2019-04-27T10:00:17.629Z,13.05
2019-04-27T10:01:22.631Z,13.15
2019-04-27T10:02:17.609Z,13.23
2019-04-27T10:03:17.588Z,13.19
2019-04-27T10:04:17.620Z,13.15
2019-04-27T10:05:17.577Z,13.25
2019-04-27T10:06:17.558Z,13.25
2019-04-27T10:07:17.553Z,13.23
2019-04-27T10:08:17.532Z,13.20
2019-04-27T10:09:17.533Z,13.17
2019-04-27T10:10:17.511Z,13.20
2019-04-27T10:11:17.503Z,13.19
2019-04-27T10:12:22.517Z,13.04
2019-04-27T10:13:17.476Z,13.08
2019-04-27T10:14:17.471Z,13.10
2019-04-27T10:15:17.505Z,13.08
2019-04-27T10:16:17.452Z,13.01
2019-04-27T10:17:17.441Z,13.07
2019-04-27T10:18:17.416Z,12.92
2019-04-27T10:19:28.207Z,12.93
2019-04-27T10:20:18.398Z,13.00
2019-04-27T10:21:17.389Z,12.96
2019-04-27T10:22:17.422Z,12.90
2019-04-27T10:23:22.384Z,12.78
2019-04-27T10:24:17.351Z,12.90
2019-04-27T10:25:17.338Z,12.83
2019-04-27T10:26:17.333Z,12.83
2019-04-27T10:27:17.330Z,12.83
2019-04-27T10:28:17.314Z,12.90
2019-04-27T10:29:17.293Z,12.86
2019-04-27T10:30:17.311Z,12.90
2019-04-27T10:31:17.270Z,12.87
2019-04-27T10:32:17.631Z,12.90
2019-04-27T10:33:17.272Z,12.85
2019-04-27T10:34:22.281Z,12.96
2019-04-27T10:35:17.227Z,12.93
2019-04-27T10:36:17.214Z,13.00
2019-04-27T10:37:17.204Z,13.07
2019-04-27T10:38:17.387Z,13.19
2019-04-27T10:39:17.194Z,13.28
2019-04-27T10:40:17.169Z,13.23
2019-04-27T10:41:17.156Z,13.25
2019-04-27T10:42:17.153Z,13.26
2019-04-27T10:43:17.145Z,13.26
2019-04-27T10:44:17.131Z,13.23
2019-04-27T10:45:22.135Z,13.23
2019-04-27T10:46:17.101Z,13.25
2019-04-27T10:47:17.089Z,13.32
2019-04-27T10:48:18.025Z,13.22
2019-04-27T10:49:17.070Z,13.23
2019-04-27T10:50:17.074Z,13.25
2019-04-27T10:51:17.048Z,13.22
2019-04-27T10:52:17.101Z,13.23
2019-04-27T10:53:17.099Z,13.23
2019-04-27T10:54:17.014Z,13.33
2019-04-27T10:55:17.008Z,13.42
2019-04-27T10:56:22.027Z,13.28
2019-04-27T10:57:16.978Z,13.25
2019-04-27T10:58:16.991Z,13.04
2019-04-27T10:59:16.953Z,13.22
2019-04-27T11:00:16.942Z,13.17
2019-04-27T11:01:16.947Z,13.25
2019-04-27T11:02:16.948Z,13.25
2019-04-27T11:03:16.943Z,13.28
2019-04-27T11:04:16.895Z,13.28
2019-04-27T11:05:16.889Z,13.25
2019-04-27T11:06:16.880Z,13.26
2019-04-27T11:07:21.888Z,13.25
2019-04-27T11:08:16.875Z,13.29
2019-04-27T11:09:16.841Z,13.19
2019-04-27T11:10:16.841Z,13.20
2019-04-27T11:11:16.837Z,13.04
2019-04-27T11:12:16.809Z,13.07
2019-04-27T11:13:16.827Z,13.07
2019-04-27T11:14:16.788Z,13.07
2019-04-27T11:15:16.772Z,13.07
2019-04-27T11:16:16.762Z,13.10
2019-04-27T11:17:16.752Z,13.05
2019-04-27T11:18:21.774Z,13.20
2019-04-27T11:19:17.060Z,13.20
2019-04-27T11:20:16.760Z,13.23
2019-04-27T11:21:16.703Z,13.23
2019-04-27T11:22:16.695Z,13.36
2019-04-27T11:23:16.692Z,13.30
2019-04-27T11:24:16.687Z,13.39
2019-04-27T11:25:16.673Z,13.39
2019-04-27T11:26:16.647Z,13.45
2019-04-27T11:27:16.635Z,13.44
2019-04-27T11:28:16.642Z,13.52
2019-04-27T11:29:21.637Z,13.44
2019-04-27T11:30:16.605Z,13.33
2019-04-27T11:31:17.244Z,13.39
2019-04-27T11:32:16.582Z,13.38
2019-04-27T11:33:16.587Z,13.42
2019-04-27T11:34:16.561Z,13.30
2019-04-27T11:35:16.559Z,13.39
2019-04-27T11:36:17.099Z,13.39
2019-04-27T11:37:16.526Z,13.46
2019-04-27T11:38:16.854Z,13.36
2019-04-27T11:39:19.641Z,13.36
2019-04-27T11:40:21.597Z,13.45
2019-04-27T11:41:16.478Z,13.51
2019-04-27T11:42:16.505Z,13.51
2019-04-27T11:43:16.569Z,13.44
2019-04-27T11:44:17.053Z,13.54
2019-04-27T11:45:16.456Z,13.55
2019-04-27T11:46:16.487Z,13.57
2019-04-27T11:47:16.460Z,13.60
2019-04-27T11:48:16.426Z,13.67
2019-04-27T11:49:16.403Z,13.67
2019-04-27T11:50:16.648Z,13.79
2019-04-27T11:51:21.390Z,13.95
2019-04-27T11:52:16.359Z,14.00
2019-04-27T11:53:22.653Z,13.96
2019-04-27T11:54:17.353Z,13.99
2019-04-27T11:55:16.329Z,13.95
2019-04-27T11:56:17.776Z,13.95
2019-04-27T11:57:16.310Z,13.99
2019-04-27T11:58:16.535Z,13.82
2019-04-27T11:59:16.289Z,13.64
2019-04-27T12:00:16.654Z,13.69
2019-04-27T12:01:16.253Z,13.71
2019-04-27T12:02:21.262Z,13.69
2019-04-27T12:03:16.667Z,13.66
2019-04-27T12:04:16.235Z,13.64
2019-04-27T12:05:16.208Z,13.66
2019-04-27T12:06:16.197Z,13.67
2019-04-27T12:07:16.186Z,13.69
2019-04-27T12:08:16.318Z,13.69
2019-04-27T12:09:16.164Z,13.71
2019-04-27T12:10:16.160Z,13.82
2019-04-27T12:11:16.142Z,13.79
2019-04-27T12:12:21.530Z,13.88
2019-04-27T12:13:22.136Z,13.84
2019-04-27T12:14:16.109Z,13.85
2019-04-27T12:15:16.328Z,13.64
2019-04-27T12:16:17.623Z,13.73
2019-04-27T12:17:16.539Z,13.67
2019-04-27T12:18:16.060Z,13.87
2019-04-27T12:19:16.471Z,13.96
2019-04-27T12:20:17.907Z,13.96
2019-04-27T12:21:16.026Z,13.91
2019-04-27T12:22:16.450Z,13.91
2019-04-27T12:23:16.493Z,13.91
2019-04-27T12:24:21.015Z,13.91
2019-04-27T12:25:15.994Z,13.99
2019-04-27T12:26:15.979Z,14.10
2019-04-27T12:27:16.022Z,14.22
2019-04-27T12:28:15.954Z,14.47
2019-04-27T12:29:16.206Z,14.70
2019-04-27T12:30:16.276Z,14.47
2019-04-27T12:31:16.388Z,14.29
2019-04-27T12:32:15.902Z,14.28
2019-04-27T12:33:15.892Z,14.36
2019-04-27T12:34:16.366Z,14.39
2019-04-27T12:35:20.906Z,14.42
2019-04-27T12:36:15.874Z,14.20
2019-04-27T12:37:15.864Z,14.14
2019-04-27T12:38:15.834Z,14.18
2019-04-27T12:39:15.826Z,14.12
2019-04-27T12:40:16.640Z,13.96
2019-04-27T12:41:15.807Z,13.88
2019-04-27T12:42:16.083Z,13.91
2019-04-27T12:43:15.781Z,13.85
2019-04-27T12:44:16.104Z,14.00
2019-04-27T12:45:16.548Z,13.84
2019-04-27T12:46:20.768Z,13.95
2019-04-27T12:47:16.354Z,13.97
2019-04-27T12:48:15.729Z,13.88
2019-04-27T12:49:16.215Z,13.81
2019-04-27T12:50:17.200Z,13.63
2019-04-27T12:51:15.696Z,13.67
2019-04-27T12:52:15.985Z,13.57
2019-04-27T12:53:15.670Z,13.51
2019-04-27T12:54:16.147Z,13.59